Time;durP1;ratioP1;P1;durP2;ratioP2;P2;SDS_P1;SDS_P2;PMS_P1;PMS_P2;Temp;Humidity;BMP_temperature;BMP_pressure;BME280_temperature;BME280_humidity;BME280_pressure;Samples;Min_cycle;Max_cycle;Signal;HPM_P1;HPM_P2
2022/12/23 00:02:08;;;;;;;2.35;0.90;;;;;;;7.06;100.00;94804.03;5084768;28;24434;-73
2022/12/23 00:04:35;;;;;;;1.55;0.85;;;;;;;7.12;100.00;94799.31;5080293;28;24438;-72
2022/12/23 00:07:01;;;;;;;2.72;0.80;;;;;;;7.13;100.00;94805.31;5075612;28;24448;-73
2022/12/23 00:09:29;;;;;;;1.50;0.50;;;;;;;7.12;100.00;94811.34;5086788;28;24437;-73
2022/12/23 00:17:24;;;;;;;1.70;0.70;;;;;;;7.18;100.00;94809.22;5079874;28;20704;-73
2022/12/23 00:19:50;;;;;;;3.72;0.63;;;;;;;7.17;100.00;94804.16;5085819;28;24437;-73
2022/12/23 00:22:17;;;;;;;6.20;0.90;;;;;;;7.18;100.00;94803.25;5089142;28;24434;-73
2022/12/23 00:24:44;;;;;;;1.60;0.70;;;;;;;7.20;100.00;94794.50;5082675;28;24442;-73
2022/12/23 00:27:11;;;;;;;0.50;0.40;;;;;;;7.25;100.00;94791.63;5082893;28;24817;-73
2022/12/23 00:29:37;;;;;;;1.00;0.40;;;;;;;7.27;100.00;94792.34;5084064;28;24430;-73
2022/12/23 00:32:04;;;;;;;3.67;0.50;;;;;;;7.29;100.00;94787.91;5087297;28;24431;-73
2022/12/23 00:34:30;;;;;;;1.10;0.50;;;;;;;7.33;100.00;94791.13;5085137;28;25014;-73
2022/12/23 00:36:57;;;;;;;1.35;0.38;;;;;;;7.32;100.00;94786.91;5083102;28;24801;-73
2022/12/23 00:45:14;;;;;;;0.60;0.40;;;;;;;7.44;100.00;94806.69;5082916;28;20824;-73
2022/12/23 00:50:23;;;;;;;0.50;0.28;;;;;;;7.54;100.00;94810.31;5085147;28;20761;-73
2022/12/23 00:52:50;;;;;;;0.70;0.30;;;;;;;7.56;100.00;94812.78;5079868;28;24467;-73
2022/12/23 00:55:16;;;;;;;0.50;0.30;;;;;;;7.59;100.00;94817.72;5085525;28;24525;-73
2022/12/23 00:57:44;;;;;;;2.23;0.40;;;;;;;7.57;100.00;94814.44;5089687;28;20775;-73
2022/12/23 01:00:11;;;;;;;0.70;0.40;;;;;;;7.61;100.00;94826.22;5089450;28;24445;-74
2022/12/23 01:05:38;;;;;;;1.02;0.30;;;;;;;7.66;100.00;94840.41;5086445;28;20640;-73
2022/12/23 01:08:04;;;;;;;0.38;0.20;;;;;;;7.69;100.00;94836.81;5084056;28;20810;-73
2022/12/23 01:10:31;;;;;;;0.70;0.30;;;;;;;7.68;100.00;94840.34;5089947;28;24434;-73
2022/12/23 01:12:59;;;;;;;0.55;0.20;;;;;;;7.67;100.00;94839.47;5078421;28;24434;-73
2022/12/23 01:15:25;;;;;;;4.00;0.20;;;;;;;7.73;100.00;94841.66;5083409;28;20780;-72
2022/12/23 01:17:51;;;;;;;0.98;0.30;;;;;;;7.73;100.00;94836.50;5087791;28;21138;-73
2022/12/23 01:20:18;;;;;;;0.60;0.20;;;;;;;7.78;100.00;94843.94;5086150;28;20779;-73
2022/12/23 01:22:45;;;;;;;0.68;0.30;;;;;;;7.82;100.00;94837.63;5073777;28;20771;-73
2022/12/23 01:25:12;;;;;;;0.13;0.10;;;;;;;7.90;100.00;94843.13;5080315;28;24458;-72
2022/12/23 01:27:38;;;;;;;0.30;0.10;;;;;;;7.90;100.00;94858.59;5086493;28;20807;-72
2022/12/23 01:30:07;;;;;;;0.90;0.10;;;;;;;7.91;100.00;94870.56;5080252;28;24501;-72
2022/12/23 01:32:34;;;;;;;0.20;0.10;;;;;;;7.89;100.00;94864.66;5082514;28;20722;-72
2022/12/23 01:35:00;;;;;;;0.47;0.20;;;;;;;7.93;100.00;94870.44;5080249;28;24442;-72
2022/12/23 01:37:27;;;;;;;0.30;0.10;;;;;;;7.95;100.00;94876.34;5087432;28;20775;-72
2022/12/23 01:39:53;;;;;;;0.30;0.10;;;;;;;7.92;100.00;94867.03;5076289;28;20773;-72
2022/12/23 01:45:13;;;;;;;1.17;0.17;;;;;;;7.99;100.00;94865.72;5077462;28;20667;-72
2022/12/23 01:47:44;;;;;;;0.07;0.07;;;;;;;8.00;100.00;94875.09;5075782;28;20665;-73
2022/12/23 01:50:13;;;;;;;1.17;0.20;;;;;;;8.09;100.00;94881.41;5070725;28;24820;-73
2022/12/23 01:52:45;;;;;;;0.08;0.08;;;;;;;8.14;100.00;94878.50;5082686;28;20816;-72
2022/12/23 01:55:14;;;;;;;0.40;0.10;;;;;;;8.16;100.00;94885.22;5080377;28;20788;-72
2022/12/23 01:57:42;;;;;;;0.43;0.10;;;;;;;8.17;100.00;94888.63;5069757;28;20781;-72
2022/12/23 02:05:40;;;;;;;4.30;0.20;;;;;;;8.17;100.00;94897.19;5071945;28;20773;-72
2022/12/23 02:11:11;;;;;;;0.60;0.00;;;;;;;8.21;100.00;94911.50;5084116;28;20704;-73
2022/12/23 02:16:35;;;;;;;0.60;0.10;;;;;;;8.27;100.00;94922.34;5076314;28;20770;-73
2022/12/23 02:19:12;;;;;;;0.30;0.10;;;;;;;8.22;100.00;94909.75;5088113;28;20656;-73
2022/12/23 02:22:03;;;;;;;0.00;0.00;;;;;;;8.24;100.00;94919.06;5076317;28;21185;-73
2022/12/23 02:25:03;;;;;;;0.30;0.10;;;;;;;8.25;100.00;94923.28;5083709;28;20735;-73
2022/12/23 02:27:31;;;;;;;0.60;0.10;;;;;;;8.22;100.00;94913.16;5073768;28;20680;-73
2022/12/23 02:30:34;;;;;;;0.60;0.10;;;;;;;8.26;100.00;94926.69;5066576;28;20806;-73
2022/12/23 02:33:32;;;;;;;0.10;0.03;;;;;;;8.29;100.00;94929.06;5078865;28;20685;-73
2022/12/23 02:36:08;;;;;;;2.10;0.10;;;;;;;8.29;100.00;94934.22;5081169;28;20767;-72
2022/12/23 02:38:44;;;;;;;0.85;0.20;;;;;;;8.29;100.00;94930.81;5074157;28;20687;-73
2022/12/23 02:41:19;;;;;;;1.85;0.15;;;;;;;8.36;100.00;94945.78;5079531;28;21077;-73
2022/12/23 02:43:50;;;;;;;1.42;0.20;;;;;;;8.41;100.00;94954.06;5075319;28;21030;-73
2022/12/23 02:46:22;;;;;;;0.20;0.10;;;;;;;8.37;100.00;94949.19;5078986;28;20719;-73
2022/12/23 02:48:53;;;;;;;0.13;0.00;;;;;;;8.32;100.00;94941.75;5074729;28;20755;-73
2022/12/23 02:51:24;;;;;;;0.70;0.10;;;;;;;8.36;100.00;94960.44;5078974;28;21048;-73
2022/12/23 02:53:54;;;;;;;0.60;0.10;;;;;;;8.31;100.00;94959.94;5074139;28;20776;-73
2022/12/23 02:56:22;;;;;;;0.45;0.10;;;;;;;8.32;100.00;94959.00;5068453;28;24453;-73
2022/12/23 02:58:54;;;;;;;0.50;0.10;;;;;;;8.34;100.00;94964.84;5072501;28;20769;-72
2022/12/23 03:01:24;;;;;;;1.60;0.10;;;;;;;8.31;100.00;94968.50;5073931;28;20714;-72
2022/12/23 03:03:51;;;;;;;0.35;0.00;;;;;;;8.72;100.00;94975.22;5077965;28;20721;-72
2022/12/23 03:06:22;;;;;;;0.10;0.00;;;;;;;8.51;100.00;94972.34;5076535;28;20821;-73
2022/12/23 03:08:52;;;;;;;0.20;0.10;;;;;;;8.49;100.00;94979.34;5075996;28;24809;-73
2022/12/23 03:11:18;;;;;;;0.10;0.10;;;;;;;8.46;100.00;94980.41;5077395;28;24434;-74
2022/12/23 03:14:16;;;;;;;0.00;0.00;;;;;;;8.39;100.00;94983.50;5085118;28;24445;-74
2022/12/23 03:16:57;;;;;;;0.38;0.10;;;;;;;8.48;100.00;94990.59;5079568;28;24992;-73
2022/12/23 03:19:30;;;;;;;0.40;0.00;;;;;;;8.44;100.00;94997.72;5081425;28;24980;-73
2022/12/23 03:22:06;;;;;;;0.60;0.10;;;;;;;8.41;100.00;94999.69;5081276;28;20994;-73
2022/12/23 03:24:39;;;;;;;0.70;0.00;;;;;;;8.42;100.00;94988.44;5075024;28;20725;-74
2022/12/23 03:27:11;;;;;;;0.00;0.00;;;;;;;8.44;100.00;94992.56;5078110;28;20917;-73
2022/12/23 03:29:44;;;;;;;0.20;0.08;;;;;;;8.43;100.00;95000.41;5076367;28;20772;-72
2022/12/23 03:32:16;;;;;;;0.38;0.10;;;;;;;8.52;100.00;94999.78;5086370;28;20690;-72
2022/12/23 03:34:46;;;;;;;0.00;0.00;;;;;;;8.57;100.00;95009.81;5085071;28;20717;-72
2022/12/23 03:37:17;;;;;;;0.10;0.00;;;;;;;8.53;100.00;95016.09;5084487;28;20738;-72
2022/12/23 03:39:48;;;;;;;0.75;0.10;;;;;;;8.60;100.00;95018.19;5084290;28;24575;-72
2022/12/23 03:42:17;;;;;;;0.08;0.00;;;;;;;8.58;100.00;95014.88;5080470;28;20780;-72
2022/12/23 03:44:49;;;;;;;0.15;0.10;;;;;;;8.59;100.00;95013.94;5078514;28;20792;-73
2022/12/23 03:47:21;;;;;;;0.10;0.10;;;;;;;8.60;100.00;95014.75;5078741;28;24438;-73
2022/12/23 03:49:52;;;;;;;0.20;0.08;;;;;;;8.55;100.00;95019.41;5084173;28;20789;-73
2022/12/23 03:52:23;;;;;;;0.15;0.10;;;;;;;8.52;100.00;95014.44;5075810;28;20716;-73
2022/12/23 03:54:53;;;;;;;0.20;0.03;;;;;;;8.51;100.00;95005.06;5071122;28;20895;-74
2022/12/23 03:57:24;;;;;;;0.30;0.00;;;;;;;8.49;100.00;95023.22;5074277;28;24458;-72
2022/12/23 03:59:52;;;;;;;0.80;0.10;;;;;;;8.50;100.00;95026.66;5072660;28;24441;-72
2022/12/23 04:02:26;;;;;;;0.30;0.10;;;;;;;8.53;100.00;95031.59;5076049;28;20793;-72
2022/12/23 04:05:17;;;;;;;0.70;0.10;;;;;;;8.60;100.00;95020.78;5079017;28;24439;-73
2022/12/23 04:07:47;;;;;;;0.50;0.00;;;;;;;8.94;100.00;95026.25;5075361;28;21317;-73
2022/12/23 04:10:14;;;;;;;0.00;0.00;;;;;;;8.99;100.00;95023.34;5082264;28;20730;-73
2022/12/23 04:12:41;;;;;;;0.40;0.08;;;;;;;8.86;100.00;95031.06;5083353;28;24438;-73
2022/12/23 04:15:09;;;;;;;0.00;0.00;;;;;;;8.93;100.00;95027.16;5082526;28;24430;-73
2022/12/23 04:17:36;;;;;;;1.00;0.10;;;;;;;8.99;100.00;95020.75;5086426;28;24476;-73
2022/12/23 04:20:04;;;;;;;0.40;0.20;;;;;;;9.01;100.00;95014.56;5080490;28;20775;-73
2022/12/23 04:22:30;;;;;;;0.10;0.10;;;;;;;9.11;100.00;95000.06;5081915;28;20842;-73
2022/12/23 04:24:56;;;;;;;0.80;0.30;;;;;;;9.14;100.00;95010.19;5086952;28;24444;-73
2022/12/23 04:27:23;;;;;;;0.45;0.20;;;;;;;9.39;100.00;94992.97;5082589;28;24434;-73
2022/12/23 04:29:49;;;;;;;0.40;0.20;;;;;;;9.35;100.00;94991.56;5082856;28;24438;-73
2022/12/23 04:32:16;;;;;;;0.20;0.10;;;;;;;9.36;100.00;95000.94;5072283;28;24474;-72
2022/12/23 04:34:44;;;;;;;0.10;0.10;;;;;;;9.40;100.00;95007.53;5076493;28;24445;-73
2022/12/23 04:37:10;;;;;;;0.00;0.00;;;;;;;9.42;100.00;95022.03;5083460;28;20854;-73
2022/12/23 04:39:36;;;;;;;0.10;0.10;;;;;;;9.45;100.00;95013.22;5078531;28;20780;-73
2022/12/23 04:42:03;;;;;;;0.10;0.10;;;;;;;9.39;100.00;95016.25;5089493;28;24434;-73
2022/12/23 04:44:30;;;;;;;1.40;0.35;;;;;;;9.30;100.00;95027.19;5084443;28;25018;-73
2022/12/23 04:46:56;;;;;;;0.40;0.30;;;;;;;9.27;100.00;95030.84;5083672;28;24796;-73
2022/12/23 04:49:23;;;;;;;0.38;0.20;;;;;;;9.29;100.00;95028.16;5073980;28;24431;-73
2022/12/23 04:51:50;;;;;;;0.30;0.10;;;;;;;9.26;100.00;95036.94;5080917;28;24438;-73
2022/12/23 04:54:17;;;;;;;0.65;0.38;;;;;;;9.18;100.00;95041.81;5079253;28;21211;-72
2022/12/23 04:56:43;;;;;;;0.70;0.40;;;;;;;9.24;100.00;95025.06;5078823;28;24822;-73
2022/12/23 04:59:10;;;;;;;0.30;0.20;;;;;;;9.20;100.00;95032.19;5082451;28;24876;-73
2022/12/23 05:01:37;;;;;;;0.30;0.20;;;;;;;9.35;100.00;95032.91;5066482;28;24439;-72
2022/12/23 05:04:03;;;;;;;0.10;0.10;;;;;;;9.32;100.00;95046.84;5079416;28;25014;-72
2022/12/23 05:06:30;;;;;;;0.22;0.20;;;;;;;9.33;100.00;95053.66;5073673;28;24450;-72
2022/12/23 05:08:57;;;;;;;0.17;0.10;;;;;;;9.26;100.00;95049.84;5060717;28;24465;-72
2022/12/23 05:11:24;;;;;;;0.20;0.10;;;;;;;9.22;100.00;95051.00;5064166;28;24442;-72
2022/12/23 05:13:50;;;;;;;0.40;0.20;;;;;;;9.25;100.00;95055.13;5073243;28;24453;-73
2022/12/23 05:16:17;;;;;;;0.60;0.20;;;;;;;9.21;100.00;95054.50;5079980;28;24442;-73
2022/12/23 05:18:43;;;;;;;0.90;0.20;;;;;;;9.21;100.00;95057.91;5081063;28;24444;-73
2022/12/23 05:21:10;;;;;;;0.30;0.10;;;;;;;9.21;100.00;95065.66;5084005;28;24477;-72
2022/12/23 05:23:38;;;;;;;0.22;0.10;;;;;;;9.20;100.00;95052.88;5072816;28;24453;-72
2022/12/23 05:26:06;;;;;;;0.70;0.10;;;;;;;9.23;100.00;95046.66;5072307;28;24992;-74
2022/12/23 05:28:32;;;;;;;0.10;0.10;;;;;;;9.17;100.00;95055.66;5078565;28;24441;-74
2022/12/23 05:31:00;;;;;;;0.47;0.20;;;;;;;9.16;100.00;95052.25;5082180;28;24426;-74
2022/12/23 05:33:27;;;;;;;0.30;0.10;;;;;;;9.17;100.00;95056.47;5073641;28;24454;-74
2022/12/23 05:35:54;;;;;;;0.45;0.20;;;;;;;9.17;100.00;95061.66;5064901;28;24438;-74
2022/12/23 05:38:20;;;;;;;0.28;0.25;;;;;;;9.14;100.00;95061.03;5078839;28;24461;-74
2022/12/23 05:40:47;;;;;;;0.43;0.30;;;;;;;9.15;100.00;95065.25;5080884;28;24441;-76
2022/12/23 05:43:15;;;;;;;1.13;0.40;;;;;;;9.13;100.00;95067.13;5076688;28;24983;-73
2022/12/23 05:45:42;;;;;;;2.63;0.28;;;;;;;9.09;100.00;95066.53;5069456;28;24857;-73
2022/12/23 05:48:09;;;;;;;0.70;0.30;;;;;;;9.15;100.00;95066.09;5083665;28;24441;-73
2022/12/23 05:50:35;;;;;;;1.40;0.20;;;;;;;9.13;100.00;95069.72;5082375;28;24444;-73
2022/12/23 05:53:02;;;;;;;0.65;0.17;;;;;;;9.23;100.00;95083.63;5078655;28;24449;-74
2022/12/23 05:55:28;;;;;;;0.50;0.20;;;;;;;9.23;100.00;95082.81;5088017;28;24804;-73
2022/12/23 05:57:55;;;;;;;0.47;0.30;;;;;;;9.20;100.00;95089.03;5077770;28;24455;-73
2022/12/23 06:00:23;;;;;;;0.50;0.20;;;;;;;9.16;100.00;95079.84;5076070;28;24430;-73
2022/12/23 06:02:49;;;;;;;0.10;0.10;;;;;;;9.10;100.00;95072.50;5081606;28;24430;-74
2022/12/23 06:05:16;;;;;;;0.70;0.20;;;;;;;9.04;100.00;95071.16;5080440;28;24453;-74
2022/12/23 06:07:42;;;;;;;0.45;0.20;;;;;;;9.08;100.00;95080.34;5076907;28;24431;-74
2022/12/23 06:10:10;;;;;;;0.50;0.30;;;;;;;9.10;100.00;95081.06;5083520;28;24505;-75
2022/12/23 06:12:38;;;;;;;0.80;0.30;;;;;;;9.14;100.00;95085.09;5083912;28;20850;-73
2022/12/23 06:15:05;;;;;;;0.40;0.20;;;;;;;9.20;100.00;95082.13;5072563;28;24434;-73
2022/12/23 06:17:33;;;;;;;0.70;0.30;;;;;;;9.19;100.00;95077.03;5078389;28;24457;-74
2022/12/23 06:19:59;;;;;;;0.57;0.20;;;;;;;9.10;100.00;95082.84;5078839;28;24805;-75
2022/12/23 06:22:26;;;;;;;0.73;0.28;;;;;;;9.04;100.00;95084.06;5085716;28;24454;-75
2022/12/23 06:24:52;;;;;;;0.35;0.17;;;;;;;9.00;100.00;95077.47;5078992;28;24434;-74
2022/12/23 06:27:19;;;;;;;1.80;0.20;;;;;;;8.98;100.00;95088.84;5086296;28;24426;-73
2022/12/23 06:29:45;;;;;;;0.10;0.10;;;;;;;8.96;100.00;95087.16;5078048;28;24439;-73
2022/12/23 06:32:12;;;;;;;0.40;0.20;;;;;;;8.92;100.00;95093.47;5072748;28;24808;-72
2022/12/23 06:34:40;;;;;;;0.60;0.22;;;;;;;8.93;100.00;95077.03;5086733;28;24452;-73
2022/12/23 06:37:06;;;;;;;0.40;0.40;;;;;;;8.92;100.00;95080.56;5075450;28;24451;-73
2022/12/23 06:39:33;;;;;;;1.10;0.75;;;;;;;8.90;100.00;95091.94;5076045;28;24515;-72
2022/12/23 06:41:59;;;;;;;1.52;0.90;;;;;;;8.87;100.00;95085.22;5086825;28;24437;-72
2022/12/23 06:44:26;;;;;;;2.35;1.02;;;;;;;8.86;100.00;95082.72;5078868;28;25010;-73
2022/12/23 06:46:52;;;;;;;2.17;0.90;;;;;;;8.83;100.00;95088.94;5082669;28;24422;-73
2022/12/23 06:49:19;;;;;;;1.30;0.30;;;;;;;8.80;100.00;95086.56;5087344;28;24819;-73
2022/12/23 06:51:46;;;;;;;0.30;0.20;;;;;;;8.78;100.00;95082.41;5088810;28;24442;-74
2022/12/23 06:54:13;;;;;;;0.30;0.30;;;;;;;8.78;100.00;95096.13;5068537;28;24443;-74
2022/12/23 06:56:40;;;;;;;0.80;0.47;;;;;;;8.85;100.00;95099.16;5082616;28;24437;-73
2022/12/23 06:59:06;;;;;;;0.90;0.40;;;;;;;8.90;100.00;95100.50;5084075;28;24434;-74
2022/12/23 07:01:33;;;;;;;4.57;3.28;;;;;;;8.84;100.00;95103.50;5084030;28;24438;-74
2022/12/23 07:04:00;;;;;;;8.13;3.00;;;;;;;8.81;100.00;95111.44;5080520;28;24438;-74
2022/12/23 07:06:27;;;;;;;2.50;1.95;;;;;;;8.78;100.00;95109.06;5081078;28;24521;-73
2022/12/23 07:08:55;;;;;;;1.45;0.95;;;;;;;8.75;100.00;95108.44;5086351;28;24437;-75
2022/12/23 07:11:21;;;;;;;1.08;0.40;;;;;;;8.75;100.00;95111.00;5081311;28;20775;-75
2022/12/23 07:13:47;;;;;;;0.50;0.40;;;;;;;8.78;100.00;95111.63;5073204;28;24444;-76
2022/12/23 07:16:14;;;;;;;0.50;0.40;;;;;;;8.75;100.00;95118.75;5068916;28;24434;-73
2022/12/23 07:18:40;;;;;;;2.38;0.52;;;;;;;8.74;100.00;95110.19;5066172;28;24458;-73
2022/12/23 07:21:07;;;;;;;1.65;0.40;;;;;;;8.68;100.00;95124.34;5068173;28;24430;-73
2022/12/23 07:23:33;;;;;;;0.67;0.40;;;;;;;8.70;100.00;95124.22;5079105;28;25253;-73
2022/12/23 07:26:01;;;;;;;0.95;0.47;;;;;;;8.68;100.00;95123.53;5075393;28;24475;-73
2022/12/23 07:28:28;;;;;;;1.02;0.60;;;;;;;8.67;100.00;95121.84;5063323;28;20804;-73
2022/12/23 07:30:55;;;;;;;2.37;0.50;;;;;;;8.72;100.00;95127.53;5085416;28;24476;-73
2022/12/23 07:33:21;;;;;;;0.57;0.55;;;;;;;8.70;100.00;95131.97;5072267;28;24446;-74
2022/12/23 07:35:48;;;;;;;1.10;0.40;;;;;;;8.74;100.00;95133.41;5080753;28;24793;-73
2022/12/23 07:38:14;;;;;;;0.82;0.47;;;;;;;8.73;100.00;95127.44;5081028;28;24866;-73
2022/12/23 07:40:41;;;;;;;0.80;0.50;;;;;;;8.71;100.00;95138.78;5071414;28;24434;-73
2022/12/23 07:43:09;;;;;;;0.50;0.43;;;;;;;8.68;100.00;95141.59;5069559;28;24537;-75
2022/12/23 07:45:35;;;;;;;0.47;0.40;;;;;;;8.65;100.00;95131.47;5065300;28;24546;-72
2022/12/23 07:48:02;;;;;;;3.60;0.80;;;;;;;8.70;100.00;95137.13;5068376;28;24438;-68
2022/12/23 07:50:29;;;;;;;3.10;1.10;;;;;;;8.72;100.00;95145.63;5080548;28;24441;-71
2022/12/23 07:52:55;;;;;;;0.80;0.80;;;;;;;8.70;100.00;95145.69;5071651;28;24442;-71
2022/12/23 07:55:23;;;;;;;2.10;0.80;;;;;;;8.73;100.00;95137.75;5074379;28;24535;-71
2022/12/23 07:57:50;;;;;;;1.40;0.80;;;;;;;8.83;100.00;95140.56;5066513;28;24457;-72
2022/12/23 08:00:20;;;;;;;1.33;0.60;;;;;;;8.77;100.00;95146.13;5075438;28;24442;-72
2022/12/23 08:02:47;;;;;;;0.60;0.40;;;;;;;8.77;100.00;95150.47;5068501;28;24430;-71
2022/12/23 08:05:15;;;;;;;0.65;0.50;;;;;;;8.78;100.00;95150.38;5081335;28;24441;-71
2022/12/23 08:07:43;;;;;;;0.80;0.50;;;;;;;8.75;100.00;95157.47;5068275;28;24463;-72
2022/12/23 08:10:11;;;;;;;0.63;0.40;;;;;;;8.76;100.00;95159.97;5061393;28;24492;-71
2022/12/23 08:12:37;;;;;;;0.95;0.60;;;;;;;8.69;100.00;95159.53;5067516;28;24438;-72
2022/12/23 08:15:05;;;;;;;1.40;0.65;;;;;;;8.69;100.00;95148.41;5066124;28;24430;-71
2022/12/23 08:17:33;;;;;;;0.93;0.70;;;;;;;8.70;100.00;95156.03;5075764;28;24461;-71
2022/12/23 08:19:59;;;;;;;2.70;0.90;;;;;;;8.71;100.00;95156.84;5083670;28;21154;-71
2022/12/23 08:22:26;;;;;;;0.75;0.70;;;;;;;8.73;100.00;95139.53;5079464;28;24793;-71
2022/12/23 08:24:52;;;;;;;0.93;0.75;;;;;;;8.75;100.00;95145.44;5078994;28;24957;-71
2022/12/23 08:27:19;;;;;;;1.02;0.73;;;;;;;8.76;100.00;95148.84;5082989;28;24434;-71
2022/12/23 08:29:45;;;;;;;1.48;0.90;;;;;;;8.78;100.00;95145.19;5088436;28;24426;-71
2022/12/23 08:32:12;;;;;;;2.23;0.93;;;;;;;8.80;100.00;95143.34;5078887;28;24560;-71
2022/12/23 08:34:40;;;;;;;1.30;1.07;;;;;;;8.87;100.00;95133.47;5082316;28;24430;-71
2022/12/23 08:37:07;;;;;;;1.98;1.13;;;;;;;8.83;100.00;95137.19;5070587;28;24426;-70
2022/12/23 08:39:33;;;;;;;1.35;1.10;;;;;;;8.81;100.00;95123.53;5076234;28;24427;-71
2022/12/23 08:42:00;;;;;;;1.65;1.20;;;;;;;8.85;100.00;95130.97;5081690;28;24426;-71
2022/12/23 08:44:26;;;;;;;1.80;1.00;;;;;;;8.83;100.00;95126.84;5089629;28;24430;-70
2022/12/23 08:46:53;;;;;;;2.53;1.23;;;;;;;8.83;100.00;95121.69;5087813;28;24510;-70
2022/12/23 08:49:20;;;;;;;1.70;1.10;;;;;;;8.82;100.00;95131.16;5082509;28;25017;-70
2022/12/23 08:51:47;;;;;;;1.85;1.15;;;;;;;8.82;100.00;95128.56;5086599;28;24437;-70
2022/12/23 08:54:14;;;;;;;1.58;1.20;;;;;;;8.85;100.00;95130.13;5091089;28;20770;-70
2022/12/23 08:56:42;;;;;;;1.27;1.17;;;;;;;8.95;100.00;95126.03;5083648;28;24441;-70
2022/12/23 08:59:12;;;;;;;1.90;1.15;;;;;;;9.15;100.00;95129.84;5089231;28;24817;-70
2022/12/23 09:01:39;;;;;;;3.65;1.55;;;;;;;8.99;100.00;95136.97;5088094;28;24422;-70
2022/12/23 09:04:07;;;;;;;1.80;1.63;;;;;;;8.95;100.00;95134.59;5082670;28;24801;-70
2022/12/23 09:06:36;;;;;;;2.00;1.40;;;;;;;8.94;100.00;95142.47;5092035;28;24426;-70
2022/12/23 09:09:05;;;;;;;2.30;1.27;;;;;;;8.95;100.00;95144.94;5068927;28;24436;-70
2022/12/23 09:11:32;;;;;;;1.90;0.98;;;;;;;9.07;100.00;95142.44;5070342;28;20768;-70
2022/12/23 09:14:00;;;;;;;2.33;1.67;;;;;;;9.15;100.00;95143.59;5073793;28;24449;-71
2022/12/23 09:16:27;;;;;;;1.63;1.25;;;;;;;9.13;100.00;95144.63;5069587;28;25007;-70
2022/12/23 09:18:53;;;;;;;2.10;1.40;;;;;;;9.04;100.00;95145.22;5080170;28;21326;-70
2022/12/23 09:21:22;;;;;;;2.47;1.50;;;;;;;9.01;100.00;95142.84;5074901;28;24433;-70
2022/12/23 09:23:49;;;;;;;3.67;1.35;;;;;;;8.98;100.00;95150.81;5085325;28;24446;-70
2022/12/23 09:26:20;;;;;;;1.38;1.27;;;;;;;8.95;100.00;95150.09;5074026;28;24438;-70
2022/12/23 09:28:46;;;;;;;1.50;1.27;;;;;;;8.92;100.00;95150.28;5084954;28;24433;-70
2022/12/23 09:31:13;;;;;;;3.05;1.23;;;;;;;8.90;100.00;95135.84;5081010;28;24430;-70
2022/12/23 09:33:40;;;;;;;1.95;1.50;;;;;;;8.87;100.00;95129.13;5079669;28;24441;-71
2022/12/23 09:36:07;;;;;;;3.00;1.50;;;;;;;8.94;100.00;95129.53;5078458;28;24438;-71
2022/12/23 09:38:34;;;;;;;2.05;1.40;;;;;;;8.98;100.00;95114.66;5071415;28;24462;-70
2022/12/23 09:41:27;;;;;;;3.17;1.35;;;;;;;9.03;100.00;95113.41;5083965;28;24441;-72
2022/12/23 09:44:11;;;;;;;1.38;1.20;;;;;;;9.00;100.00;95120.53;5083398;28;24450;-71
2022/12/23 09:46:45;;;;;;;1.35;0.90;;;;;;;9.06;100.00;95109.81;5070856;28;24842;-71
2022/12/23 09:49:15;;;;;;;0.75;0.60;;;;;;;9.25;100.00;95099.88;5087043;28;25006;-71
2022/12/23 09:51:42;;;;;;;1.17;0.60;;;;;;;9.44;100.00;95095.09;5076992;28;24442;-71
2022/12/23 09:54:16;;;;;;;1.00;0.40;;;;;;;9.57;100.00;95097.66;5086365;28;24438;-71
2022/12/23 09:56:48;;;;;;;0.77;0.43;;;;;;;9.43;100.00;95102.97;5084741;28;24426;-71
2022/12/23 09:59:26;;;;;;;1.70;0.70;;;;;;;9.48;100.00;95100.88;5080042;28;24490;-71
2022/12/23 10:01:58;;;;;;;1.02;0.70;;;;;;;9.32;100.00;95101.13;5067921;28;24434;-72
2022/12/23 10:04:35;;;;;;;1.20;0.90;;;;;;;9.30;100.00;95099.56;5071991;28;24438;-71
2022/12/23 10:07:25;;;;;;;1.67;0.90;;;;;;;9.30;100.00;95094.38;5085396;28;20779;-72
2022/12/23 10:09:55;;;;;;;1.33;0.90;;;;;;;9.26;100.00;95098.94;5071154;28;21144;-72
2022/12/23 10:12:30;;;;;;;4.32;1.00;;;;;;;9.26;100.00;95098.13;5086045;28;24434;-72
2022/12/23 10:15:02;;;;;;;1.48;1.00;;;;;;;9.24;100.00;95092.25;5068592;28;24463;-72
2022/12/23 10:17:34;;;;;;;1.00;0.80;;;;;;;9.20;100.00;95092.44;5073879;28;24924;-71
2022/12/23 10:20:04;;;;;;;1.35;0.90;;;;;;;9.18;100.00;95091.72;5072940;28;24435;-71
2022/12/23 10:22:37;;;;;;;1.00;0.80;;;;;;;9.17;100.00;95079.72;5078831;28;24528;-70
2022/12/23 10:25:12;;;;;;;0.90;0.70;;;;;;;9.17;100.00;95092.66;5081893;28;25276;-72
2022/12/23 10:27:41;;;;;;;0.80;0.75;;;;;;;9.16;100.00;95090.19;5078159;28;24836;-72
2022/12/23 10:30:13;;;;;;;1.30;1.02;;;;;;;9.16;100.00;95090.19;5080678;28;20769;-73
2022/12/23 10:32:52;;;;;;;1.63;1.07;;;;;;;9.15;100.00;95086.75;5087081;28;24441;-72
2022/12/23 10:35:37;;;;;;;1.10;1.00;;;;;;;9.18;100.00;95088.31;5069574;28;24445;-72
2022/12/23 10:38:22;;;;;;;1.25;1.13;;;;;;;9.16;100.00;95078.09;5070157;28;24451;-72
2022/12/23 10:40:55;;;;;;;1.83;1.10;;;;;;;9.17;100.00;95079.72;5072636;28;24434;-72
2022/12/23 10:43:31;;;;;;;1.95;1.23;;;;;;;9.19;100.00;95071.88;5079490;28;20710;-71
2022/12/23 10:46:07;;;;;;;2.50;1.27;;;;;;;9.20;100.00;95069.19;5083015;28;24438;-71
2022/12/23 10:48:48;;;;;;;3.50;1.55;;;;;;;9.27;100.00;95067.03;5076222;28;24454;-72
2022/12/23 10:51:19;;;;;;;2.55;1.38;;;;;;;9.31;100.00;95055.53;5073201;28;24430;-72
2022/12/23 10:53:52;;;;;;;1.92;1.45;;;;;;;9.37;100.00;95051.69;5077504;28;24441;-72
2022/12/23 10:56:20;;;;;;;2.10;1.60;;;;;;;9.40;100.00;95054.06;5076702;28;24442;-71
2022/12/23 10:58:51;;;;;;;2.80;1.88;;;;;;;9.44;100.00;95051.16;5081285;28;24450;-71
2022/12/23 11:01:19;;;;;;;4.30;1.77;;;;;;;9.55;100.00;95052.16;5076993;28;25015;-71
2022/12/23 11:03:53;;;;;;;2.55;1.30;;;;;;;9.55;100.00;95049.59;5079031;28;20811;-72
2022/12/23 11:06:21;;;;;;;2.00;1.23;;;;;;;9.59;100.00;95048.44;5077157;28;24544;-71
2022/12/23 11:08:47;;;;;;;1.90;0.90;;;;;;;9.60;100.00;95034.56;5080815;28;20795;-71
2022/12/23 11:11:14;;;;;;;2.50;1.20;;;;;;;9.64;100.00;95041.16;5076878;28;24422;-71
2022/12/23 11:13:42;;;;;;;1.10;0.70;;;;;;;9.70;100.00;95038.16;5064241;28;24469;-71
2022/12/23 11:16:17;;;;;;;2.23;0.60;;;;;;;9.73;100.00;95032.78;5071739;28;24426;-73
2022/12/23 11:18:59;;;;;;;4.68;0.70;;;;;;;9.74;100.00;95031.00;5078195;28;24457;-73
2022/12/23 11:21:27;;;;;;;1.00;0.40;;;;;;;9.82;100.00;95032.09;5069728;28;24434;-73
2022/12/23 11:24:14;;;;;;;0.88;0.30;;;;;;;9.80;100.00;95031.41;5074130;28;24434;-73
2022/12/23 11:26:42;;;;;;;0.82;0.73;;;;;;;9.77;100.00;95026.44;5073600;28;24480;-73
2022/12/23 11:29:12;;;;;;;2.55;0.88;;;;;;;9.81;100.00;95020.13;5078346;28;24441;-73
2022/12/23 11:31:42;;;;;;;1.15;0.63;;;;;;;9.78;100.00;95017.75;5072598;28;24441;-73
2022/12/23 11:34:16;;;;;;;1.27;0.67;;;;;;;9.77;100.00;95004.94;5072585;28;24439;-73
2022/12/23 11:36:43;;;;;;;1.05;0.70;;;;;;;9.79;100.00;95001.31;5083127;28;24435;-72
2022/12/23 11:39:20;;;;;;;1.35;0.70;;;;;;;9.81;100.00;95001.19;5076353;28;24453;-72
2022/12/23 11:41:49;;;;;;;3.97;0.68;;;;;;;9.81;100.00;94993.44;5071607;28;24439;-72
2022/12/23 11:44:22;;;;;;;0.73;0.53;;;;;;;9.86;100.00;94992.19;5078484;28;24984;-73
2022/12/23 11:46:49;;;;;;;1.30;0.60;;;;;;;9.84;100.00;94993.22;5082996;28;24445;-73
2022/12/23 11:49:21;;;;;;;0.75;0.30;;;;;;;9.83;100.00;94992.41;5071492;28;24793;-73
2022/12/23 11:51:58;;;;;;;0.60;0.50;;;;;;;9.83;100.00;94983.81;5066949;28;24439;-73
2022/12/23 11:54:25;;;;;;;0.80;0.40;;;;;;;9.85;100.00;94977.59;5083361;28;24887;-73
2022/12/23 11:56:53;;;;;;;1.20;0.52;;;;;;;9.85;100.00;94976.75;5087913;28;24441;-73
2022/12/23 11:59:32;;;;;;;0.75;0.30;;;;;;;9.88;100.00;94966.19;5077636;28;25344;-73
2022/12/23 12:02:01;;;;;;;0.90;0.47;;;;;;;9.91;100.00;94963.41;5060841;28;24525;-72
2022/12/23 12:04:31;;;;;;;0.75;0.55;;;;;;;9.94;100.00;94964.00;5075785;28;24434;-72
2022/12/23 12:06:59;;;;;;;0.82;0.55;;;;;;;9.90;100.00;94957.41;5085243;28;24490;-72
2022/12/23 12:09:28;;;;;;;0.52;0.50;;;;;;;9.87;100.00;94939.50;5084372;28;24495;-73
2022/12/23 12:11:58;;;;;;;0.95;0.52;;;;;;;9.88;100.00;94942.91;5080309;28;24426;-73
2022/12/23 12:14:31;;;;;;;1.63;1.00;;;;;;;9.88;100.00;94925.63;5056678;28;24438;-73
2022/12/23 12:17:05;;;;;;;1.40;0.77;;;;;;;9.94;100.00;94926.97;5087784;28;24433;-73